sensor_id;sensor_type;location;lat;lon;timestamp;P1;durP1;ratioP1;P2;durP2;ratioP2
69434;SDS011;56625;54.322;18.582;2024-01-25T00:00:42;3.60;;;0.40;;
69434;SDS011;56625;54.322;18.582;2024-01-25T00:03:31;5.60;;;0.60;;
69434;SDS011;56625;54.322;18.582;2024-01-25T00:05:59;5.10;;;0.50;;
69434;SDS011;56625;54.322;18.582;2024-01-25T00:08:28;4.50;;;0.30;;
69434;SDS011;56625;54.322;18.582;2024-01-25T00:10:55;5.30;;;0.50;;
69434;SDS011;56625;54.322;18.582;2024-01-25T00:13:23;4.40;;;0.40;;
69434;SDS011;56625;54.322;18.582;2024-01-25T00:15:52;4.50;;;0.60;;
69434;SDS011;56625;54.322;18.582;2024-01-25T00:18:20;2.50;;;0.20;;
69434;SDS011;56625;54.322;18.582;2024-01-25T00:20:48;4.30;;;0.40;;
69434;SDS011;56625;54.322;18.582;2024-01-25T00:23:17;5.40;;;0.60;;
69434;SDS011;56625;54.322;18.582;2024-01-25T00:25:45;5.70;;;0.50;;
69434;SDS011;56625;54.322;18.582;2024-01-25T00:28:13;3.10;;;0.30;;
69434;SDS011;56625;54.322;18.582;2024-01-25T00:30:41;3.80;;;0.30;;
69434;SDS011;56625;54.322;18.582;2024-01-25T00:33:09;4.10;;;0.40;;
69434;SDS011;56625;54.322;18.582;2024-01-25T00:35:38;3.60;;;0.20;;
69434;SDS011;56625;54.322;18.582;2024-01-25T00:38:07;2.80;;;0.30;;
69434;SDS011;56625;54.322;18.582;2024-01-25T00:40:36;1.60;;;0.10;;
69434;SDS011;56625;54.322;18.582;2024-01-25T00:43:05;4.10;;;0.30;;
69434;SDS011;56625;54.322;18.582;2024-01-25T00:45:34;4.00;;;0.50;;
69434;SDS011;56625;54.322;18.582;2024-01-25T00:48:02;3.00;;;0.30;;
69434;SDS011;56625;54.322;18.582;2024-01-25T00:50:31;3.10;;;0.30;;
69434;SDS011;56625;54.322;18.582;2024-01-25T00:53:00;4.90;;;0.20;;
69434;SDS011;56625;54.322;18.582;2024-01-25T00:55:28;4.40;;;0.50;;
69434;SDS011;56625;54.322;18.582;2024-01-25T00:57:57;3.90;;;0.30;;
69434;SDS011;56625;54.322;18.582;2024-01-25T01:00:27;4.80;;;0.60;;
69434;SDS011;56625;54.322;18.582;2024-01-25T01:02:57;3.40;;;0.60;;
69434;SDS011;56625;54.322;18.582;2024-01-25T01:05:28;2.70;;;0.20;;
69434;SDS011;56625;54.322;18.582;2024-01-25T01:07:57;3.80;;;0.30;;
69434;SDS011;56625;54.322;18.582;2024-01-25T01:10:25;4.80;;;0.30;;
69434;SDS011;56625;54.322;18.582;2024-01-25T01:12:54;5.20;;;0.50;;
69434;SDS011;56625;54.322;18.582;2024-01-25T01:15:22;5.80;;;0.50;;
69434;SDS011;56625;54.322;18.582;2024-01-25T01:17:50;6.80;;;0.70;;
69434;SDS011;56625;54.322;18.582;2024-01-25T01:20:18;8.60;;;1.20;;
69434;SDS011;56625;54.322;18.582;2024-01-25T01:22:47;4.60;;;0.70;;
69434;SDS011;56625;54.322;18.582;2024-01-25T01:25:14;10.00;;;1.00;;
69434;SDS011;56625;54.322;18.582;2024-01-25T01:27:43;7.40;;;1.10;;
69434;SDS011;56625;54.322;18.582;2024-01-25T01:30:11;10.40;;;1.50;;
69434;SDS011;56625;54.322;18.582;2024-01-25T01:32:39;10.90;;;1.70;;
69434;SDS011;56625;54.322;18.582;2024-01-25T01:35:07;11.10;;;1.00;;
69434;SDS011;56625;54.322;18.582;2024-01-25T01:37:36;8.30;;;1.20;;
69434;SDS011;56625;54.322;18.582;2024-01-25T01:40:04;15.10;;;2.50;;
69434;SDS011;56625;54.322;18.582;2024-01-25T01:42:33;16.00;;;2.50;;
69434;SDS011;56625;54.322;18.582;2024-01-25T01:45:01;14.40;;;2.30;;
69434;SDS011;56625;54.322;18.582;2024-01-25T01:47:29;14.20;;;2.20;;
69434;SDS011;56625;54.322;18.582;2024-01-25T01:49:57;15.60;;;2.10;;
69434;SDS011;56625;54.322;18.582;2024-01-25T01:52:26;12.80;;;1.70;;
69434;SDS011;56625;54.322;18.582;2024-01-25T01:54:55;15.60;;;1.40;;
69434;SDS011;56625;54.322;18.582;2024-01-25T01:57:24;13.60;;;0.90;;
69434;SDS011;56625;54.322;18.582;2024-01-25T01:59:52;11.80;;;1.80;;
69434;SDS011;56625;54.322;18.582;2024-01-25T02:02:21;10.20;;;1.80;;
69434;SDS011;56625;54.322;18.582;2024-01-25T02:04:49;15.50;;;1.50;;
69434;SDS011;56625;54.322;18.582;2024-01-25T02:07:18;9.40;;;1.40;;
69434;SDS011;56625;54.322;18.582;2024-01-25T02:09:46;7.40;;;0.90;;
69434;SDS011;56625;54.322;18.582;2024-01-25T02:12:17;7.60;;;1.00;;
69434;SDS011;56625;54.322;18.582;2024-01-25T02:14:45;9.30;;;1.60;;
69434;SDS011;56625;54.322;18.582;2024-01-25T02:17:13;10.30;;;1.10;;
69434;SDS011;56625;54.322;18.582;2024-01-25T02:19:42;7.80;;;1.00;;
69434;SDS011;56625;54.322;18.582;2024-01-25T02:22:10;7.80;;;1.30;;
69434;SDS011;56625;54.322;18.582;2024-01-25T02:24:38;9.60;;;1.30;;
69434;SDS011;56625;54.322;18.582;2024-01-25T02:27:07;8.20;;;1.00;;
69434;SDS011;56625;54.322;18.582;2024-01-25T02:29:35;6.70;;;0.90;;
69434;SDS011;56625;54.322;18.582;2024-01-25T02:32:03;7.90;;;0.60;;
69434;SDS011;56625;54.322;18.582;2024-01-25T02:34:32;9.70;;;1.10;;
69434;SDS011;56625;54.322;18.582;2024-01-25T02:37:00;6.80;;;0.90;;
69434;SDS011;56625;54.322;18.582;2024-01-25T02:39:28;8.60;;;0.90;;
69434;SDS011;56625;54.322;18.582;2024-01-25T02:41:57;8.00;;;0.60;;
69434;SDS011;56625;54.322;18.582;2024-01-25T02:44:25;17.40;;;1.50;;
69434;SDS011;56625;54.322;18.582;2024-01-25T02:46:54;7.90;;;1.00;;
69434;SDS011;56625;54.322;18.582;2024-01-25T02:49:23;7.70;;;1.00;;
69434;SDS011;56625;54.322;18.582;2024-01-25T02:51:53;7.00;;;1.10;;
69434;SDS011;56625;54.322;18.582;2024-01-25T02:54:21;5.90;;;0.70;;
69434;SDS011;56625;54.322;18.582;2024-01-25T02:56:50;7.60;;;0.80;;
69434;SDS011;56625;54.322;18.582;2024-01-25T02:59:18;6.30;;;0.60;;
69434;SDS011;56625;54.322;18.582;2024-01-25T03:01:48;7.30;;;1.00;;
69434;SDS011;56625;54.322;18.582;2024-01-25T03:04:17;6.20;;;0.90;;
69434;SDS011;56625;54.322;18.582;2024-01-25T03:06:47;4.60;;;0.80;;
69434;SDS011;56625;54.322;18.582;2024-01-25T03:09:17;4.60;;;0.60;;
69434;SDS011;56625;54.322;18.582;2024-01-25T03:11:46;8.60;;;0.90;;
69434;SDS011;56625;54.322;18.582;2024-01-25T03:14:17;5.30;;;0.80;;
69434;SDS011;56625;54.322;18.582;2024-01-25T03:16:45;9.40;;;1.20;;
69434;SDS011;56625;54.322;18.582;2024-01-25T03:19:14;9.80;;;1.30;;
69434;SDS011;56625;54.322;18.582;2024-01-25T03:21:43;6.50;;;0.60;;
69434;SDS011;56625;54.322;18.582;2024-01-25T03:24:12;5.60;;;0.60;;
69434;SDS011;56625;54.322;18.582;2024-01-25T03:26:40;6.20;;;0.60;;
69434;SDS011;56625;54.322;18.582;2024-01-25T03:29:08;5.40;;;0.60;;
69434;SDS011;56625;54.322;18.582;2024-01-25T03:31:36;5.00;;;0.80;;
69434;SDS011;56625;54.322;18.582;2024-01-25T03:34:06;7.80;;;1.10;;
69434;SDS011;56625;54.322;18.582;2024-01-25T03:36:34;9.40;;;1.20;;
69434;SDS011;56625;54.322;18.582;2024-01-25T03:39:03;6.50;;;0.50;;
69434;SDS011;56625;54.322;18.582;2024-01-25T03:41:31;6.40;;;0.80;;
69434;SDS011;56625;54.322;18.582;2024-01-25T03:43:59;8.20;;;0.80;;
69434;SDS011;56625;54.322;18.582;2024-01-25T03:46:27;5.40;;;0.50;;
69434;SDS011;56625;54.322;18.582;2024-01-25T03:48:56;6.00;;;0.40;;
69434;SDS011;56625;54.322;18.582;2024-01-25T03:51:24;7.60;;;0.60;;
69434;SDS011;56625;54.322;18.582;2024-01-25T03:53:52;7.40;;;0.90;;
69434;SDS011;56625;54.322;18.582;2024-01-25T03:56:23;3.10;;;0.30;;
69434;SDS011;56625;54.322;18.582;2024-01-25T03:58:51;7.10;;;1.00;;
69434;SDS011;56625;54.322;18.582;2024-01-25T04:01:19;6.10;;;0.70;;
69434;SDS011;56625;54.322;18.582;2024-01-25T04:03:47;4.90;;;0.70;;
69434;SDS011;56625;54.322;18.582;2024-01-25T04:06:15;6.50;;;0.70;;
69434;SDS011;56625;54.322;18.582;2024-01-25T04:08:44;6.10;;;0.60;;
69434;SDS011;56625;54.322;18.582;2024-01-25T04:11:12;5.00;;;0.40;;
69434;SDS011;56625;54.322;18.582;2024-01-25T04:13:41;3.60;;;0.40;;
69434;SDS011;56625;54.322;18.582;2024-01-25T04:16:13;6.10;;;0.70;;
69434;SDS011;56625;54.322;18.582;2024-01-25T04:18:42;9.20;;;0.80;;
69434;SDS011;56625;54.322;18.582;2024-01-25T04:21:11;2.30;;;0.20;;
69434;SDS011;56625;54.322;18.582;2024-01-25T04:23:39;3.20;;;0.30;;
69434;SDS011;56625;54.322;18.582;2024-01-25T04:26:07;7.00;;;0.80;;
69434;SDS011;56625;54.322;18.582;2024-01-25T04:28:35;7.00;;;0.80;;
69434;SDS011;56625;54.322;18.582;2024-01-25T04:31:03;8.80;;;0.60;;
69434;SDS011;56625;54.322;18.582;2024-01-25T04:33:31;6.60;;;0.70;;
69434;SDS011;56625;54.322;18.582;2024-01-25T04:35:59;3.70;;;0.40;;
69434;SDS011;56625;54.322;18.582;2024-01-25T04:38:28;6.80;;;0.40;;
69434;SDS011;56625;54.322;18.582;2024-01-25T04:40:56;4.70;;;0.70;;
69434;SDS011;56625;54.322;18.582;2024-01-25T04:43:36;4.90;;;0.70;;
69434;SDS011;56625;54.322;18.582;2024-01-25T04:46:09;5.30;;;0.60;;
69434;SDS011;56625;54.322;18.582;2024-01-25T04:48:39;9.80;;;0.60;;
69434;SDS011;56625;54.322;18.582;2024-01-25T04:51:14;5.00;;;0.80;;
69434;SDS011;56625;54.322;18.582;2024-01-25T04:53:43;4.60;;;0.60;;
69434;SDS011;56625;54.322;18.582;2024-01-25T04:56:12;5.70;;;0.30;;
69434;SDS011;56625;54.322;18.582;2024-01-25T04:58:40;7.10;;;0.80;;
69434;SDS011;56625;54.322;18.582;2024-01-25T05:01:11;8.90;;;1.00;;
69434;SDS011;56625;54.322;18.582;2024-01-25T05:03:39;6.90;;;0.80;;
69434;SDS011;56625;54.322;18.582;2024-01-25T05:06:09;3.80;;;0.60;;
69434;SDS011;56625;54.322;18.582;2024-01-25T05:08:38;5.20;;;0.60;;
69434;SDS011;56625;54.322;18.582;2024-01-25T05:11:06;5.40;;;0.60;;
69434;SDS011;56625;54.322;18.582;2024-01-25T05:13:37;3.40;;;0.40;;
69434;SDS011;56625;54.322;18.582;2024-01-25T05:16:05;6.60;;;0.60;;
69434;SDS011;56625;54.322;18.582;2024-01-25T05:18:34;3.10;;;0.40;;
69434;SDS011;56625;54.322;18.582;2024-01-25T05:21:06;3.80;;;0.30;;
69434;SDS011;56625;54.322;18.582;2024-01-25T05:23:38;4.50;;;0.30;;
69434;SDS011;56625;54.322;18.582;2024-01-25T05:26:13;2.90;;;0.30;;
69434;SDS011;56625;54.322;18.582;2024-01-25T05:28:43;3.90;;;0.50;;
69434;SDS011;56625;54.322;18.582;2024-01-25T05:31:12;4.70;;;0.40;;
69434;SDS011;56625;54.322;18.582;2024-01-25T05:33:44;6.00;;;0.50;;
69434;SDS011;56625;54.322;18.582;2024-01-25T05:36:13;2.90;;;0.20;;
69434;SDS011;56625;54.322;18.582;2024-01-25T05:38:41;5.70;;;0.50;;
69434;SDS011;56625;54.322;18.582;2024-01-25T05:41:09;3.20;;;0.30;;
69434;SDS011;56625;54.322;18.582;2024-01-25T05:43:37;5.70;;;0.40;;
69434;SDS011;56625;54.322;18.582;2024-01-25T05:46:05;3.90;;;0.30;;
69434;SDS011;56625;54.322;18.582;2024-01-25T05:48:33;5.20;;;0.60;;
69434;SDS011;56625;54.322;18.582;2024-01-25T05:51:02;5.20;;;0.50;;
69434;SDS011;56625;54.322;18.582;2024-01-25T05:53:30;5.00;;;0.50;;
69434;SDS011;56625;54.322;18.582;2024-01-25T05:55:58;2.80;;;0.10;;
69434;SDS011;56625;54.322;18.582;2024-01-25T05:58:26;6.50;;;0.40;;
69434;SDS011;56625;54.322;18.582;2024-01-25T06:00:54;4.40;;;0.50;;
69434;SDS011;56625;54.322;18.582;2024-01-25T06:03:22;3.00;;;0.20;;
69434;SDS011;56625;54.322;18.582;2024-01-25T06:05:50;5.00;;;0.40;;
69434;SDS011;56625;54.322;18.582;2024-01-25T06:08:19;5.00;;;0.40;;
69434;SDS011;56625;54.322;18.582;2024-01-25T06:10:47;5.80;;;0.50;;
69434;SDS011;56625;54.322;18.582;2024-01-25T06:13:15;5.20;;;0.50;;
69434;SDS011;56625;54.322;18.582;2024-01-25T06:15:44;8.00;;;0.60;;
69434;SDS011;56625;54.322;18.582;2024-01-25T06:18:12;6.80;;;0.50;;
69434;SDS011;56625;54.322;18.582;2024-01-25T06:20:40;6.10;;;0.60;;
69434;SDS011;56625;54.322;18.582;2024-01-25T06:23:10;6.60;;;0.60;;
69434;SDS011;56625;54.322;18.582;2024-01-25T06:25:38;2.60;;;0.30;;
69434;SDS011;56625;54.322;18.582;2024-01-25T06:28:09;7.80;;;0.90;;
69434;SDS011;56625;54.322;18.582;2024-01-25T06:30:37;4.10;;;0.40;;
69434;SDS011;56625;54.322;18.582;2024-01-25T06:33:06;8.20;;;0.60;;
69434;SDS011;56625;54.322;18.582;2024-01-25T06:35:38;8.00;;;1.00;;
69434;SDS011;56625;54.322;18.582;2024-01-25T06:38:08;3.50;;;0.40;;
69434;SDS011;56625;54.322;18.582;2024-01-25T06:40:36;7.50;;;0.60;;
69434;SDS011;56625;54.322;18.582;2024-01-25T06:43:05;3.60;;;0.30;;
69434;SDS011;56625;54.322;18.582;2024-01-25T06:45:34;7.40;;;0.60;;
69434;SDS011;56625;54.322;18.582;2024-01-25T06:48:02;5.20;;;0.50;;
69434;SDS011;56625;54.322;18.582;2024-01-25T06:50:34;4.80;;;0.70;;
69434;SDS011;56625;54.322;18.582;2024-01-25T06:53:08;4.50;;;1.10;;
69434;SDS011;56625;54.322;18.582;2024-01-25T06:55:36;7.40;;;1.20;;
69434;SDS011;56625;54.322;18.582;2024-01-25T06:58:04;5.50;;;0.70;;
69434;SDS011;56625;54.322;18.582;2024-01-25T07:00:32;6.80;;;0.60;;
69434;SDS011;56625;54.322;18.582;2024-01-25T07:03:01;5.30;;;0.70;;
69434;SDS011;56625;54.322;18.582;2024-01-25T07:05:30;5.30;;;0.60;;
69434;SDS011;56625;54.322;18.582;2024-01-25T07:08:02;6.10;;;0.60;;
69434;SDS011;56625;54.322;18.582;2024-01-25T07:10:31;3.60;;;0.50;;
69434;SDS011;56625;54.322;18.582;2024-01-25T07:12:59;3.40;;;0.30;;
69434;SDS011;56625;54.322;18.582;2024-01-25T07:15:28;5.20;;;0.50;;
69434;SDS011;56625;54.322;18.582;2024-01-25T07:17:56;5.00;;;0.40;;
69434;SDS011;56625;54.322;18.582;2024-01-25T07:20:25;3.20;;;0.40;;
69434;SDS011;56625;54.322;18.582;2024-01-25T07:22:53;6.10;;;0.50;;
69434;SDS011;56625;54.322;18.582;2024-01-25T07:25:24;3.10;;;0.30;;
69434;SDS011;56625;54.322;18.582;2024-01-25T07:27:53;5.20;;;0.50;;
69434;SDS011;56625;54.322;18.582;2024-01-25T07:30:21;1.90;;;0.20;;
69434;SDS011;56625;54.322;18.582;2024-01-25T07:32:49;2.90;;;0.30;;
69434;SDS011;56625;54.322;18.582;2024-01-25T07:35:20;4.10;;;0.90;;
69434;SDS011;56625;54.322;18.582;2024-01-25T07:37:48;4.80;;;0.70;;
69434;SDS011;56625;54.322;18.582;2024-01-25T07:40:17;2.80;;;0.40;;
69434;SDS011;56625;54.322;18.582;2024-01-25T07:42:46;3.10;;;0.50;;
69434;SDS011;56625;54.322;18.582;2024-01-25T07:45:16;2.10;;;0.20;;
69434;SDS011;56625;54.322;18.582;2024-01-25T07:47:44;2.00;;;0.20;;
69434;SDS011;56625;54.322;18.582;2024-01-25T07:50:12;2.50;;;0.30;;
69434;SDS011;56625;54.322;18.582;2024-01-25T07:52:40;1.70;;;0.20;;
69434;SDS011;56625;54.322;18.582;2024-01-25T07:55:08;1.60;;;0.20;;
69434;SDS011;56625;54.322;18.582;2024-01-25T07:57:37;1.90;;;0.20;;
69434;SDS011;56625;54.322;18.582;2024-01-25T08:00:05;1.90;;;0.10;;
69434;SDS011;56625;54.322;18.582;2024-01-25T08:02:38;1.50;;;0.10;;
69434;SDS011;56625;54.322;18.582;2024-01-25T08:05:10;1.70;;;0.10;;
69434;SDS011;56625;54.322;18.582;2024-01-25T08:07:39;1.30;;;0.10;;
69434;SDS011;56625;54.322;18.582;2024-01-25T08:10:08;3.70;;;0.60;;
69434;SDS011;56625;54.322;18.582;2024-01-25T08:12:36;2.40;;;0.30;;
69434;SDS011;56625;54.322;18.582;2024-01-25T08:15:14;1.30;;;0.10;;
69434;SDS011;56625;54.322;18.582;2024-01-25T08:17:46;3.40;;;0.20;;
69434;SDS011;56625;54.322;18.582;2024-01-25T08:20:14;1.50;;;0.10;;
69434;SDS011;56625;54.322;18.582;2024-01-25T08:22:45;3.30;;;0.10;;
69434;SDS011;56625;54.322;18.582;2024-01-25T08:25:14;2.90;;;0.20;;
69434;SDS011;56625;54.322;18.582;2024-01-25T08:27:44;1.60;;;0.30;;
69434;SDS011;56625;54.322;18.582;2024-01-25T08:30:13;1.30;;;0.10;;
69434;SDS011;56625;54.322;18.582;2024-01-25T08:32:42;1.70;;;0.20;;
69434;SDS011;56625;54.322;18.582;2024-01-25T08:35:10;1.30;;;0.10;;
69434;SDS011;56625;54.322;18.582;2024-01-25T08:37:39;2.50;;;0.40;;
69434;SDS011;56625;54.322;18.582;2024-01-25T08:40:08;1.00;;;0.20;;
69434;SDS011;56625;54.322;18.582;2024-01-25T08:42:39;1.90;;;0.10;;
69434;SDS011;56625;54.322;18.582;2024-01-25T08:45:08;2.30;;;0.20;;
69434;SDS011;56625;54.322;18.582;2024-01-25T08:47:39;4.20;;;0.30;;
69434;SDS011;56625;54.322;18.582;2024-01-25T08:50:08;4.40;;;0.40;;
69434;SDS011;56625;54.322;18.582;2024-01-25T08:52:39;3.10;;;0.30;;
69434;SDS011;56625;54.322;18.582;2024-01-25T08:55:08;2.80;;;0.20;;
69434;SDS011;56625;54.322;18.582;2024-01-25T08:57:37;3.90;;;0.50;;
69434;SDS011;56625;54.322;18.582;2024-01-25T09:00:08;3.30;;;0.40;;
69434;SDS011;56625;54.322;18.582;2024-01-25T09:02:38;5.20;;;0.40;;
69434;SDS011;56625;54.322;18.582;2024-01-25T09:05:07;5.50;;;0.50;;
69434;SDS011;56625;54.322;18.582;2024-01-25T09:07:42;2.20;;;0.40;;
69434;SDS011;56625;54.322;18.582;2024-01-25T09:10:13;4.70;;;0.50;;
69434;SDS011;56625;54.322;18.582;2024-01-25T09:12:42;3.40;;;0.20;;
69434;SDS011;56625;54.322;18.582;2024-01-25T09:15:13;4.80;;;0.30;;
69434;SDS011;56625;54.322;18.582;2024-01-25T09:17:44;1.30;;;0.10;;
69434;SDS011;56625;54.322;18.582;2024-01-25T09:20:15;0.80;;;0.10;;
69434;SDS011;56625;54.322;18.582;2024-01-25T09:22:46;2.40;;;0.20;;
69434;SDS011;56625;54.322;18.582;2024-01-25T09:25:17;2.80;;;0.30;;
69434;SDS011;56625;54.322;18.582;2024-01-25T09:27:48;0.80;;;0.10;;
69434;SDS011;56625;54.322;18.582;2024-01-25T09:30:19;2.20;;;0.20;;
69434;SDS011;56625;54.322;18.582;2024-01-25T09:32:50;1.30;;;0.20;;
69434;SDS011;56625;54.322;18.582;2024-01-25T09:35:19;2.90;;;0.30;;
69434;SDS011;56625;54.322;18.582;2024-01-25T09:37:50;2.80;;;0.40;;
69434;SDS011;56625;54.322;18.582;2024-01-25T09:40:23;2.30;;;0.30;;
69434;SDS011;56625;54.322;18.582;2024-01-25T09:42:55;2.60;;;0.40;;
69434;SDS011;56625;54.322;18.582;2024-01-25T09:45:25;5.40;;;0.40;;
69434;SDS011;56625;54.322;18.582;2024-01-25T09:47:54;4.80;;;0.80;;
69434;SDS011;56625;54.322;18.582;2024-01-25T09:50:25;5.20;;;1.00;;
69434;SDS011;56625;54.322;18.582;2024-01-25T09:52:57;5.50;;;1.00;;
69434;SDS011;56625;54.322;18.582;2024-01-25T09:55:30;4.40;;;0.80;;
69434;SDS011;56625;54.322;18.582;2024-01-25T09:58:10;2.70;;;0.40;;
69434;SDS011;56625;54.322;18.582;2024-01-25T10:00:42;4.90;;;0.50;;
69434;SDS011;56625;54.322;18.582;2024-01-25T10:03:13;3.60;;;0.80;;
69434;SDS011;56625;54.322;18.582;2024-01-25T10:05:44;2.30;;;0.30;;
69434;SDS011;56625;54.322;18.582;2024-01-25T10:08:15;3.60;;;0.50;;
69434;SDS011;56625;54.322;18.582;2024-01-25T10:10:45;2.70;;;0.50;;
69434;SDS011;56625;54.322;18.582;2024-01-25T10:13:17;2.80;;;0.30;;
69434;SDS011;56625;54.322;18.582;2024-01-25T10:15:46;2.60;;;0.30;;
69434;SDS011;56625;54.322;18.582;2024-01-25T10:18:17;3.20;;;0.60;;
69434;SDS011;56625;54.322;18.582;2024-01-25T10:20:58;1.70;;;0.30;;
69434;SDS011;56625;54.322;18.582;2024-01-25T10:23:31;1.40;;;0.20;;
69434;SDS011;56625;54.322;18.582;2024-01-25T10:26:03;2.60;;;0.40;;
69434;SDS011;56625;54.322;18.582;2024-01-25T10:28:34;3.80;;;0.40;;
69434;SDS011;56625;54.322;18.582;2024-01-25T10:31:05;3.10;;;0.30;;
69434;SDS011;56625;54.322;18.582;2024-01-25T10:33:38;3.30;;;0.30;;
69434;SDS011;56625;54.322;18.582;2024-01-25T10:36:08;4.40;;;0.50;;
69434;SDS011;56625;54.322;18.582;2024-01-25T10:38:39;2.70;;;0.40;;
69434;SDS011;56625;54.322;18.582;2024-01-25T10:41:13;2.80;;;0.30;;
69434;SDS011;56625;54.322;18.582;2024-01-25T10:43:43;2.60;;;0.40;;
69434;SDS011;56625;54.322;18.582;2024-01-25T10:46:14;1.40;;;0.30;;
69434;SDS011;56625;54.322;18.582;2024-01-25T10:48:45;2.90;;;0.60;;
69434;SDS011;56625;54.322;18.582;2024-01-25T10:51:16;3.40;;;0.40;;
69434;SDS011;56625;54.322;18.582;2024-01-25T10:53:48;2.60;;;0.50;;
69434;SDS011;56625;54.322;18.582;2024-01-25T10:56:18;3.10;;;0.30;;
69434;SDS011;56625;54.322;18.582;2024-01-25T10:58:48;3.10;;;0.30;;
69434;SDS011;56625;54.322;18.582;2024-01-25T11:01:20;3.50;;;0.20;;
69434;SDS011;56625;54.322;18.582;2024-01-25T11:03:51;2.80;;;0.20;;
69434;SDS011;56625;54.322;18.582;2024-01-25T11:06:22;2.10;;;0.30;;
69434;SDS011;56625;54.322;18.582;2024-01-25T11:09:05;3.10;;;0.30;;
69434;SDS011;56625;54.322;18.582;2024-01-25T11:11:36;3.20;;;0.30;;
69434;SDS011;56625;54.322;18.582;2024-01-25T11:14:13;2.00;;;0.20;;
69434;SDS011;56625;54.322;18.582;2024-01-25T11:16:46;2.10;;;0.20;;
69434;SDS011;56625;54.322;18.582;2024-01-25T11:19:21;2.40;;;0.30;;
69434;SDS011;56625;54.322;18.582;2024-01-25T11:21:52;2.60;;;0.20;;
69434;SDS011;56625;54.322;18.582;2024-01-25T11:24:25;3.20;;;0.20;;
69434;SDS011;56625;54.322;18.582;2024-01-25T11:27:00;2.50;;;0.30;;
69434;SDS011;56625;54.322;18.582;2024-01-25T11:29:28;4.10;;;0.60;;
69434;SDS011;56625;54.322;18.582;2024-01-25T11:31:58;2.10;;;0.20;;
69434;SDS011;56625;54.322;18.582;2024-01-25T11:34:26;2.90;;;0.50;;
69434;SDS011;56625;54.322;18.582;2024-01-25T11:36:54;2.20;;;0.30;;
69434;SDS011;56625;54.322;18.582;2024-01-25T11:39:38;1.90;;;0.30;;
69434;SDS011;56625;54.322;18.582;2024-01-25T11:42:06;0.80;;;0.10;;
69434;SDS011;56625;54.322;18.582;2024-01-25T11:44:34;1.40;;;0.20;;
69434;SDS011;56625;54.322;18.582;2024-01-25T11:47:03;1.20;;;0.20;;
69434;SDS011;56625;54.322;18.582;2024-01-25T11:49:31;2.30;;;0.30;;
69434;SDS011;56625;54.322;18.582;2024-01-25T11:52:00;1.70;;;0.30;;
69434;SDS011;56625;54.322;18.582;2024-01-25T11:54:30;2.60;;;0.30;;
69434;SDS011;56625;54.322;18.582;2024-01-25T11:56:58;2.70;;;0.30;;
69434;SDS011;56625;54.322;18.582;2024-01-25T11:59:27;2.00;;;0.30;;
69434;SDS011;56625;54.322;18.582;2024-01-25T12:01:55;2.70;;;0.40;;
69434;SDS011;56625;54.322;18.582;2024-01-25T12:04:24;1.90;;;0.20;;
69434;SDS011;56625;54.322;18.582;2024-01-25T12:06:53;2.90;;;0.50;;
69434;SDS011;56625;54.322;18.582;2024-01-25T12:09:21;2.50;;;0.20;;
69434;SDS011;56625;54.322;18.582;2024-01-25T12:11:49;2.80;;;0.30;;
69434;SDS011;56625;54.322;18.582;2024-01-25T12:14:19;4.10;;;0.50;;
69434;SDS011;56625;54.322;18.582;2024-01-25T12:16:47;2.80;;;0.40;;
69434;SDS011;56625;54.322;18.582;2024-01-25T12:19:15;3.30;;;0.40;;
69434;SDS011;56625;54.322;18.582;2024-01-25T12:21:44;3.60;;;0.30;;
69434;SDS011;56625;54.322;18.582;2024-01-25T12:24:12;3.50;;;0.50;;
69434;SDS011;56625;54.322;18.582;2024-01-25T12:26:43;2.90;;;0.50;;
69434;SDS011;56625;54.322;18.582;2024-01-25T12:29:11;3.50;;;0.40;;
69434;SDS011;56625;54.322;18.582;2024-01-25T12:31:39;2.70;;;0.30;;
69434;SDS011;56625;54.322;18.582;2024-01-25T12:34:13;4.10;;;0.40;;
69434;SDS011;56625;54.322;18.582;2024-01-25T12:36:44;1.30;;;0.20;;
69434;SDS011;56625;54.322;18.582;2024-01-25T12:39:12;2.00;;;0.30;;
69434;SDS011;56625;54.322;18.582;2024-01-25T12:41:46;3.50;;;0.50;;
69434;SDS011;56625;54.322;18.582;2024-01-25T12:44:15;1.70;;;0.20;;
69434;SDS011;56625;54.322;18.582;2024-01-25T12:46:43;1.80;;;0.30;;
69434;SDS011;56625;54.322;18.582;2024-01-25T12:49:11;4.30;;;0.40;;
69434;SDS011;56625;54.322;18.582;2024-01-25T12:51:40;4.20;;;0.40;;
69434;SDS011;56625;54.322;18.582;2024-01-25T12:54:08;2.90;;;0.40;;
69434;SDS011;56625;54.322;18.582;2024-01-25T12:56:37;2.40;;;0.30;;
69434;SDS011;56625;54.322;18.582;2024-01-25T12:59:05;3.60;;;0.40;;
69434;SDS011;56625;54.322;18.582;2024-01-25T13:01:33;2.90;;;0.30;;
69434;SDS011;56625;54.322;18.582;2024-01-25T13:04:02;1.60;;;0.10;;
69434;SDS011;56625;54.322;18.582;2024-01-25T13:06:31;3.10;;;0.30;;
69434;SDS011;56625;54.322;18.582;2024-01-25T13:08:59;5.30;;;0.60;;
69434;SDS011;56625;54.322;18.582;2024-01-25T13:11:27;2.00;;;0.20;;
69434;SDS011;56625;54.322;18.582;2024-01-25T13:13:55;3.70;;;0.40;;
69434;SDS011;56625;54.322;18.582;2024-01-25T13:16:23;3.00;;;0.40;;
69434;SDS011;56625;54.322;18.582;2024-01-25T13:18:51;1.40;;;0.20;;
69434;SDS011;56625;54.322;18.582;2024-01-25T13:21:20;3.10;;;0.40;;
69434;SDS011;56625;54.322;18.582;2024-01-25T13:23:48;2.20;;;0.30;;
69434;SDS011;56625;54.322;18.582;2024-01-25T13:26:16;3.10;;;0.30;;
69434;SDS011;56625;54.322;18.582;2024-01-25T13:28:44;2.80;;;0.20;;
69434;SDS011;56625;54.322;18.582;2024-01-25T13:31:12;1.90;;;0.20;;
69434;SDS011;56625;54.322;18.582;2024-01-25T13:33:40;3.70;;;0.50;;
69434;SDS011;56625;54.322;18.582;2024-01-25T13:36:11;1.90;;;0.20;;
69434;SDS011;56625;54.322;18.582;2024-01-25T13:38:41;2.40;;;0.40;;
69434;SDS011;56625;54.322;18.582;2024-01-25T13:41:09;4.20;;;0.40;;
69434;SDS011;56625;54.322;18.582;2024-01-25T13:43:38;2.50;;;0.30;;
69434;SDS011;56625;54.322;18.582;2024-01-25T13:46:05;2.80;;;0.30;;
69434;SDS011;56625;54.322;18.582;2024-01-25T13:48:33;3.60;;;0.60;;
69434;SDS011;56625;54.322;18.582;2024-01-25T13:51:02;2.10;;;0.20;;
69434;SDS011;56625;54.322;18.582;2024-01-25T13:53:30;3.10;;;0.50;;
69434;SDS011;56625;54.322;18.582;2024-01-25T13:55:59;4.00;;;0.50;;
69434;SDS011;56625;54.322;18.582;2024-01-25T13:58:27;4.90;;;0.40;;
69434;SDS011;56625;54.322;18.582;2024-01-25T14:00:55;3.60;;;0.40;;
69434;SDS011;56625;54.322;18.582;2024-01-25T14:03:23;5.40;;;0.40;;
69434;SDS011;56625;54.322;18.582;2024-01-25T14:05:52;3.90;;;1.00;;
69434;SDS011;56625;54.322;18.582;2024-01-25T14:08:20;2.00;;;0.30;;
69434;SDS011;56625;54.322;18.582;2024-01-25T14:10:48;2.40;;;0.30;;
69434;SDS011;56625;54.322;18.582;2024-01-25T14:13:16;1.40;;;0.20;;
69434;SDS011;56625;54.322;18.582;2024-01-25T14:15:44;1.60;;;0.20;;
69434;SDS011;56625;54.322;18.582;2024-01-25T14:18:13;3.30;;;0.30;;
69434;SDS011;56625;54.322;18.582;2024-01-25T14:20:42;3.00;;;0.40;;
69434;SDS011;56625;54.322;18.582;2024-01-25T14:23:10;3.30;;;0.20;;
69434;SDS011;56625;54.322;18.582;2024-01-25T14:25:38;1.40;;;0.20;;
69434;SDS011;56625;54.322;18.582;2024-01-25T14:28:07;2.10;;;0.40;;
69434;SDS011;56625;54.322;18.582;2024-01-25T14:30:35;2.30;;;0.50;;
69434;SDS011;56625;54.322;18.582;2024-01-25T14:33:03;2.70;;;0.30;;
69434;SDS011;56625;54.322;18.582;2024-01-25T14:35:32;2.50;;;0.20;;
69434;SDS011;56625;54.322;18.582;2024-01-25T14:38:00;2.90;;;0.30;;
69434;SDS011;56625;54.322;18.582;2024-01-25T14:40:28;2.00;;;0.40;;
69434;SDS011;56625;54.322;18.582;2024-01-25T14:43:16;3.60;;;0.50;;
69434;SDS011;56625;54.322;18.582;2024-01-25T14:45:45;3.60;;;0.40;;